createdAt,value
2022-12-23T00:00:35.233Z,15.50
2022-12-23T00:03:15.371Z,15.50
2022-12-23T00:06:02.207Z,15.60
2022-12-23T00:08:56.227Z,15.60
2022-12-23T00:11:43.197Z,15.60
2022-12-23T00:14:42.238Z,15.60
2022-12-23T00:17:29.253Z,15.60
2022-12-23T00:20:17.223Z,15.60
2022-12-23T00:23:13.218Z,15.60
2022-12-23T00:26:00.228Z,15.60
2022-12-23T00:28:47.244Z,15.60
2022-12-23T00:31:27.365Z,15.60
2022-12-23T00:34:14.231Z,15.60
2022-12-23T00:36:54.567Z,15.60
2022-12-23T00:40:06.272Z,15.60
2022-12-23T00:43:02.219Z,15.60
2022-12-23T00:45:49.263Z,15.60
2022-12-23T00:48:54.206Z,15.60
2022-12-23T00:51:41.205Z,15.60
2022-12-23T00:54:21.264Z,15.60
2022-12-23T00:57:08.211Z,15.60
2022-12-23T00:59:55.230Z,15.60
2022-12-23T01:03:01.274Z,15.60
2022-12-23T01:05:42.322Z,15.60
2022-12-23T01:08:36.229Z,15.60
2022-12-23T01:11:23.217Z,15.60
2022-12-23T01:14:05.311Z,15.60
2022-12-23T01:16:52.352Z,15.60
2022-12-23T01:19:32.286Z,15.60
2022-12-23T01:22:19.221Z,15.60
2022-12-23T01:24:59.347Z,15.60
2022-12-23T01:27:46.235Z,15.60
2022-12-23T01:30:26.292Z,15.60
2022-12-23T01:33:13.222Z,15.60
2022-12-23T01:35:54.295Z,15.60
2022-12-23T01:38:41.256Z,15.60
2022-12-23T01:41:59.237Z,15.60
2022-12-23T01:44:59.197Z,15.60
2022-12-23T01:47:47.208Z,15.60
2022-12-23T01:50:51.325Z,15.60
2022-12-23T01:53:44.242Z,15.50
2022-12-23T01:56:44.217Z,15.50
2022-12-23T01:59:43.083Z,15.50
2022-12-23T02:02:49.314Z,15.50
2022-12-23T02:05:37.226Z,15.50
2022-12-23T02:08:44.119Z,15.50
2022-12-23T02:11:43.229Z,15.50
2022-12-23T02:14:42.534Z,15.50
2022-12-23T02:17:50.226Z,15.50
2022-12-23T02:20:30.887Z,15.40
2022-12-23T02:23:38.246Z,15.40
2022-12-23T02:26:31.546Z,15.40
2022-12-23T02:29:49.206Z,15.30
2022-12-23T02:32:38.794Z,15.30
2022-12-23T02:36:02.202Z,15.20
2022-12-23T02:39:14.104Z,15.30
2022-12-23T02:42:12.213Z,15.30
2022-12-23T02:45:08.241Z,15.30
2022-12-23T02:47:57.269Z,15.30
2022-12-23T02:50:47.235Z,15.30
2022-12-23T02:53:35.339Z,15.30
2022-12-23T02:56:25.245Z,15.30
2022-12-23T02:59:11.292Z,15.30
2022-12-23T03:02:00.372Z,15.30
2022-12-23T03:04:48.237Z,15.30
2022-12-23T03:07:44.232Z,15.40
2022-12-23T03:10:52.313Z,15.40
2022-12-23T03:14:33.219Z,15.40
2022-12-23T03:17:39.306Z,15.40
2022-12-23T03:20:56.222Z,15.40
2022-12-23T03:23:50.406Z,15.40
2022-12-23T03:26:51.273Z,15.40
2022-12-23T03:29:42.237Z,15.40
2022-12-23T03:32:24.620Z,15.40
2022-12-23T03:35:14.291Z,15.40
2022-12-23T03:38:02.286Z,15.40
2022-12-23T03:40:54.220Z,15.40
2022-12-23T03:43:55.220Z,15.40
2022-12-23T03:46:50.304Z,15.40
2022-12-23T03:49:43.231Z,15.40
2022-12-23T03:52:54.276Z,15.40
2022-12-23T03:55:52.297Z,15.30
2022-12-23T03:59:12.223Z,15.30
2022-12-23T04:02:23.464Z,15.30
2022-12-23T04:05:25.252Z,15.30
2022-12-23T04:08:40.226Z,15.30
2022-12-23T04:11:27.222Z,15.30
2022-12-23T04:14:07.303Z,15.30
2022-12-23T04:16:55.228Z,15.40
2022-12-23T04:19:35.282Z,15.40
2022-12-23T04:22:23.234Z,15.40
2022-12-23T04:25:10.219Z,15.40
2022-12-23T04:27:57.293Z,15.40
2022-12-23T04:30:37.221Z,15.40
2022-12-23T04:33:24.220Z,15.40
2022-12-23T04:36:06.301Z,15.40
2022-12-23T04:38:53.217Z,15.40
2022-12-23T04:41:33.343Z,15.40
2022-12-23T04:44:20.233Z,15.40
2022-12-23T04:47:07.296Z,15.40
2022-12-23T04:49:47.721Z,15.50
2022-12-23T04:52:34.232Z,15.40
2022-12-23T04:55:21.352Z,15.50
2022-12-23T04:58:01.228Z,15.50
2022-12-23T05:00:41.786Z,15.50
2022-12-23T05:03:28.281Z,15.50
2022-12-23T05:06:08.796Z,15.50
2022-12-23T05:08:55.267Z,15.50
2022-12-23T05:11:42.667Z,15.50
2022-12-23T05:14:22.267Z,15.50
2022-12-23T05:17:07.473Z,15.50
2022-12-23T05:19:54.250Z,15.50
2022-12-23T05:22:34.727Z,15.50
2022-12-23T05:25:22.209Z,15.50
2022-12-23T05:28:03.668Z,15.50
2022-12-23T05:30:50.251Z,15.50
2022-12-23T05:33:38.309Z,15.60
2022-12-23T05:36:19.282Z,15.50
2022-12-23T05:39:06.237Z,15.60
2022-12-23T05:41:53.236Z,15.60
2022-12-23T05:44:40.286Z,15.60
2022-12-23T05:47:20.240Z,15.60
2022-12-23T05:50:00.913Z,15.60
2022-12-23T05:52:47.272Z,15.60
2022-12-23T05:55:28.785Z,15.60
2022-12-23T05:58:16.269Z,15.60
2022-12-23T06:01:03.238Z,15.60
2022-12-23T06:03:50.300Z,15.60
2022-12-23T06:06:30.738Z,15.60
2022-12-23T06:09:17.236Z,15.60
2022-12-23T06:11:58.028Z,15.60
2022-12-23T06:14:44.244Z,15.60
2022-12-23T06:17:24.770Z,15.60
2022-12-23T06:20:17.955Z,15.60
2022-12-23T06:23:07.291Z,15.60
2022-12-23T06:25:47.221Z,15.60
2022-12-23T06:28:35.281Z,15.60
2022-12-23T06:31:15.353Z,15.60
2022-12-23T06:34:02.299Z,15.60
2022-12-23T06:36:42.226Z,15.60
2022-12-23T06:39:23.766Z,15.60
2022-12-23T06:42:10.232Z,15.60
2022-12-23T06:44:51.199Z,15.60
2022-12-23T06:47:38.242Z,15.60
2022-12-23T06:50:25.258Z,15.70
2022-12-23T06:53:05.304Z,15.60
2022-12-23T06:55:52.234Z,15.60
2022-12-23T06:58:32.301Z,15.60
2022-12-23T07:01:19.297Z,15.60
2022-12-23T07:03:59.291Z,15.60
2022-12-23T07:06:46.230Z,15.60
2022-12-23T07:09:33.288Z,15.60
2022-12-23T07:12:13.234Z,15.60
2022-12-23T07:15:00.223Z,15.60
2022-12-23T07:17:47.248Z,15.60
2022-12-23T07:20:34.265Z,15.60
2022-12-23T07:23:14.457Z,15.60
2022-12-23T07:25:55.781Z,15.60
2022-12-23T07:28:42.232Z,15.60
2022-12-23T07:31:29.396Z,15.60
2022-12-23T07:34:09.255Z,15.60
2022-12-23T07:36:49.731Z,15.60
2022-12-23T07:39:36.246Z,15.60
2022-12-23T07:42:43.605Z,15.60
2022-12-23T07:45:24.223Z,15.60
2022-12-23T07:48:04.839Z,15.60
2022-12-23T07:50:51.254Z,15.60
2022-12-23T07:53:31.819Z,15.60
2022-12-23T07:56:19.263Z,15.70
2022-12-23T07:59:06.253Z,15.80
2022-12-23T08:01:46.501Z,15.80
2022-12-23T08:04:33.296Z,15.80
2022-12-23T08:07:13.451Z,15.80
2022-12-23T08:10:00.237Z,15.90
2022-12-23T08:12:40.353Z,15.90
2022-12-23T08:15:27.242Z,15.90
2022-12-23T08:18:07.285Z,15.90
2022-12-23T08:21:09.223Z,15.90
2022-12-23T08:23:49.365Z,16.00
2022-12-23T08:26:36.234Z,16.00
2022-12-23T08:29:16.355Z,16.00
2022-12-23T08:32:03.240Z,16.00
2022-12-23T08:34:43.291Z,16.00
2022-12-23T08:37:30.239Z,16.10
2022-12-23T08:40:10.312Z,16.10
2022-12-23T08:42:57.253Z,16.10
2022-12-23T08:45:38.333Z,16.10
2022-12-23T08:48:25.291Z,16.10
2022-12-23T08:51:13.304Z,16.10
2022-12-23T08:54:05.245Z,16.10
2022-12-23T08:56:49.303Z,16.10
2022-12-23T08:59:36.237Z,16.10
2022-12-23T09:02:18.502Z,16.10
2022-12-23T09:05:05.223Z,16.10
2022-12-23T09:07:45.294Z,16.10
2022-12-23T09:10:33.255Z,16.10
2022-12-23T09:13:19.900Z,16.10
2022-12-23T09:16:10.310Z,16.20
2022-12-23T09:18:50.297Z,16.10
2022-12-23T09:21:37.246Z,16.20
2022-12-23T09:24:17.340Z,16.20
2022-12-23T09:27:04.258Z,16.20
2022-12-23T09:29:44.296Z,16.20
2022-12-23T09:32:31.218Z,16.20
2022-12-23T09:35:18.230Z,16.20
2022-12-23T09:38:05.272Z,16.20
2022-12-23T09:40:47.235Z,16.20
2022-12-23T09:44:19.245Z,16.20
2022-12-23T09:47:10.252Z,16.20
2022-12-23T09:50:10.577Z,16.30
2022-12-23T09:53:14.249Z,16.20
2022-12-23T09:56:06.256Z,16.20
2022-12-23T09:59:24.382Z,16.20
2022-12-23T10:02:35.446Z,16.30
2022-12-23T10:05:46.248Z,16.30
2022-12-23T10:08:46.236Z,16.30
2022-12-23T10:11:42.224Z,16.30
2022-12-23T10:14:35.302Z,16.30
2022-12-23T10:17:35.238Z,16.30
2022-12-23T10:20:23.572Z,16.30
2022-12-23T10:23:13.243Z,16.30
2022-12-23T10:25:57.339Z,16.30
2022-12-23T10:28:44.260Z,16.30
2022-12-23T10:31:40.441Z,16.30
2022-12-23T10:34:50.241Z,16.30
2022-12-23T10:37:46.239Z,16.30
2022-12-23T10:40:36.097Z,16.30
2022-12-23T10:43:42.229Z,16.30
2022-12-23T10:47:03.370Z,16.30
2022-12-23T10:50:11.243Z,16.40
2022-12-23T10:53:00.311Z,16.40
2022-12-23T10:55:45.257Z,16.40
2022-12-23T10:58:33.387Z,16.40
2022-12-23T11:01:22.027Z,16.30
2022-12-23T11:04:22.321Z,16.40
2022-12-23T11:07:41.623Z,16.40
2022-12-23T11:10:26.231Z,16.40
2022-12-23T11:13:13.280Z,16.40
2022-12-23T11:15:53.256Z,16.40
2022-12-23T11:18:38.798Z,16.40
2022-12-23T11:21:28.239Z,16.30
2022-12-23T11:24:23.303Z,16.30
2022-12-23T11:27:12.228Z,16.40
2022-12-23T11:30:01.321Z,16.40
2022-12-23T11:32:41.245Z,16.30
2022-12-23T11:35:33.286Z,16.30
2022-12-23T11:38:27.242Z,16.30
2022-12-23T11:41:08.143Z,16.40
2022-12-23T11:43:55.262Z,16.30
2022-12-23T11:46:35.664Z,16.40
2022-12-23T11:49:31.264Z,16.40
2022-12-23T11:52:14.801Z,16.40
2022-12-23T11:55:10.237Z,16.40
2022-12-23T11:57:59.259Z,16.40
2022-12-23T12:00:55.871Z,16.40
2022-12-23T12:03:55.371Z,16.40
2022-12-23T12:06:37.321Z,16.40
2022-12-23T12:09:32.316Z,16.40
2022-12-23T12:12:23.255Z,16.40
2022-12-23T12:15:05.297Z,16.40
2022-12-23T12:17:56.256Z,16.40
2022-12-23T12:20:43.362Z,16.40
2022-12-23T12:23:33.258Z,16.40
2022-12-23T12:26:26.237Z,16.40
2022-12-23T12:29:32.257Z,16.40
2022-12-23T12:32:28.240Z,16.40
2022-12-23T12:35:43.395Z,16.40
2022-12-23T12:38:38.253Z,16.40
2022-12-23T12:41:32.235Z,16.40
2022-12-23T12:44:46.270Z,16.40
2022-12-23T12:48:02.154Z,16.40
2022-12-23T12:51:27.561Z,16.40
2022-12-23T12:54:39.227Z,16.40
2022-12-23T12:57:22.260Z,16.40
2022-12-23T13:00:12.232Z,16.40
2022-12-23T13:03:25.308Z,16.40
2022-12-23T13:06:24.263Z,16.40
2022-12-23T13:09:48.257Z,16.40
2022-12-23T13:12:53.302Z,16.40
2022-12-23T13:16:08.261Z,16.40
2022-12-23T13:19:00.251Z,16.40
2022-12-23T13:21:58.264Z,16.40
2022-12-23T13:25:10.249Z,16.40
2022-12-23T13:28:19.423Z,16.40
2022-12-23T13:31:32.305Z,16.40
2022-12-23T13:34:41.095Z,16.40
2022-12-23T13:37:51.245Z,16.40
2022-12-23T13:40:50.317Z,16.40
2022-12-23T13:43:46.245Z,16.40
2022-12-23T13:46:58.261Z,16.40
2022-12-23T13:50:06.438Z,16.40
2022-12-23T13:53:31.292Z,16.40
2022-12-23T13:56:51.321Z,16.40
2022-12-23T13:59:50.253Z,16.40
2022-12-23T14:02:42.698Z,16.40
2022-12-23T14:05:43.220Z,16.30
2022-12-23T14:08:33.269Z,16.30
2022-12-23T14:11:26.307Z,16.30
2022-12-23T14:14:09.261Z,16.30
2022-12-23T14:17:16.270Z,16.30
2022-12-23T14:20:39.279Z,16.30
2022-12-23T14:24:02.448Z,16.30
2022-12-23T14:26:57.272Z,16.30
2022-12-23T14:29:44.240Z,16.30
2022-12-23T14:32:28.049Z,16.30
2022-12-23T14:35:42.420Z,16.30
2022-12-23T14:38:38.301Z,16.30
2022-12-23T14:41:47.255Z,16.30
2022-12-23T14:44:36.589Z,16.30
2022-12-23T14:47:44.253Z,16.30
2022-12-23T14:50:44.323Z,16.20
2022-12-23T14:53:39.261Z,16.20
2022-12-23T14:56:19.686Z,16.30
2022-12-23T14:59:09.275Z,16.20
2022-12-23T15:02:00.436Z,16.30
2022-12-23T15:04:51.243Z,16.30
2022-12-23T15:07:35.337Z,16.30
2022-12-23T15:10:32.247Z,16.30
2022-12-23T15:13:16.522Z,16.30
2022-12-23T15:16:08.289Z,16.30
2022-12-23T15:19:02.276Z,16.20
2022-12-23T15:21:54.499Z,16.20
2022-12-23T15:24:48.383Z,16.20
2022-12-23T15:27:29.786Z,16.20
2022-12-23T15:30:20.240Z,16.20
2022-12-23T15:33:16.117Z,16.20
2022-12-23T15:36:14.249Z,16.20
2022-12-23T15:38:54.422Z,16.20
2022-12-23T15:41:52.455Z,16.20
2022-12-23T15:44:49.261Z,16.20
2022-12-23T15:47:38.698Z,16.20
2022-12-23T15:50:33.270Z,16.20
2022-12-23T15:53:23.305Z,16.20
2022-12-23T15:56:03.253Z,16.20
2022-12-23T15:58:44.048Z,16.20
2022-12-23T16:01:33.346Z,16.20
2022-12-23T16:04:28.352Z,16.20
2022-12-23T16:07:09.317Z,16.20
2022-12-23T16:09:59.301Z,16.20
2022-12-23T16:12:40.308Z,16.20
2022-12-23T16:15:33.242Z,16.20
2022-12-23T16:18:33.969Z,16.20
2022-12-23T16:21:21.260Z,16.20
2022-12-23T16:24:08.271Z,16.20
2022-12-23T16:26:48.796Z,16.20
2022-12-23T16:29:35.283Z,16.20
2022-12-23T16:32:18.459Z,16.20
2022-12-23T16:35:05.252Z,16.20
2022-12-23T16:37:52.314Z,16.20
2022-12-23T16:40:32.261Z,16.20
2022-12-23T16:43:19.277Z,16.20
2022-12-23T16:46:09.293Z,16.20
2022-12-23T16:49:05.002Z,16.20
2022-12-23T16:51:46.264Z,16.20
2022-12-23T16:54:26.380Z,16.20
2022-12-23T16:57:13.483Z,16.20
2022-12-23T16:59:53.722Z,16.20
2022-12-23T17:02:42.361Z,16.20
2022-12-23T17:05:23.792Z,16.20
2022-12-23T17:08:10.256Z,16.20
2022-12-23T17:11:04.350Z,16.20
2022-12-23T17:13:51.549Z,16.20
2022-12-23T17:16:34.458Z,16.20
2022-12-23T17:19:28.047Z,16.20
2022-12-23T17:22:17.371Z,16.20
2022-12-23T17:24:57.835Z,16.30
2022-12-23T17:27:44.302Z,16.20
2022-12-23T17:30:32.531Z,16.20
2022-12-23T17:33:13.627Z,16.30
2022-12-23T17:36:02.292Z,16.30
2022-12-23T17:38:42.531Z,16.30
2022-12-23T17:41:32.269Z,16.30
2022-12-23T17:44:13.589Z,16.30
2022-12-23T17:47:00.265Z,16.30
2022-12-23T17:49:47.471Z,16.30
2022-12-23T17:52:34.253Z,16.30
2022-12-23T17:55:29.358Z,16.30
2022-12-23T17:58:17.271Z,16.30
2022-12-23T18:00:57.359Z,16.30
2022-12-23T18:03:44.267Z,16.30
2022-12-23T18:06:26.561Z,16.30
2022-12-23T18:09:20.267Z,16.30
2022-12-23T18:12:07.352Z,16.30
2022-12-23T18:14:47.282Z,16.30
2022-12-23T18:17:27.915Z,16.30
2022-12-23T18:20:14.292Z,16.30
2022-12-23T18:22:55.405Z,16.30
2022-12-23T18:25:42.254Z,16.30
2022-12-23T18:28:23.440Z,16.30
2022-12-23T18:31:11.616Z,16.30
2022-12-23T18:33:58.319Z,16.30
2022-12-23T18:36:39.815Z,16.30
2022-12-23T18:39:26.268Z,16.30
2022-12-23T18:42:13.272Z,16.30
2022-12-23T18:45:00.471Z,16.30
2022-12-23T18:47:40.294Z,16.40
2022-12-23T18:50:28.330Z,16.30
2022-12-23T18:53:09.541Z,16.30
2022-12-23T18:55:57.360Z,16.30
2022-12-23T18:58:38.324Z,16.30
2022-12-23T19:01:26.426Z,16.40
2022-12-23T19:04:13.264Z,16.30
2022-12-23T19:06:56.087Z,16.40
2022-12-23T19:09:42.351Z,16.40
2022-12-23T19:12:29.611Z,16.40
2022-12-23T19:15:09.266Z,16.30
2022-12-23T19:17:57.557Z,16.40
2022-12-23T19:20:45.481Z,16.40
2022-12-23T19:23:33.263Z,16.40
2022-12-23T19:26:15.435Z,16.30
2022-12-23T19:29:02.270Z,16.40
2022-12-23T19:31:42.304Z,16.40
2022-12-23T19:34:29.268Z,16.40
2022-12-23T19:37:16.248Z,16.30
2022-12-23T19:40:10.290Z,16.40
2022-12-23T19:42:57.273Z,16.40
2022-12-23T19:45:37.823Z,16.40
2022-12-23T19:48:24.279Z,16.40
2022-12-23T19:51:13.633Z,16.30
2022-12-23T19:54:01.273Z,16.40
2022-12-23T19:56:41.881Z,16.30
2022-12-23T19:59:28.284Z,16.40
2022-12-23T20:02:15.647Z,16.30
2022-12-23T20:05:02.577Z,16.40
2022-12-23T20:07:42.316Z,16.30
2022-12-23T20:10:29.262Z,16.40
2022-12-23T20:13:16.276Z,16.30
2022-12-23T20:16:03.328Z,16.40
2022-12-23T20:18:43.472Z,16.30
2022-12-23T20:21:30.692Z,16.30
2022-12-23T20:24:11.399Z,16.30
2022-12-23T20:26:58.270Z,16.30
2022-12-23T20:29:45.715Z,16.30
2022-12-23T20:32:33.714Z,16.30
2022-12-23T20:35:14.413Z,16.30
2022-12-23T20:38:01.326Z,16.30
2022-12-23T20:40:41.965Z,16.30
2022-12-23T20:43:28.293Z,16.30
2022-12-23T20:46:12.429Z,16.30
2022-12-23T20:48:59.276Z,16.30
2022-12-23T20:51:39.342Z,16.30
2022-12-23T20:54:31.992Z,16.30
2022-12-23T20:57:12.452Z,16.30
2022-12-23T20:59:59.293Z,16.30
2022-12-23T21:02:40.674Z,16.30
2022-12-23T21:05:27.327Z,16.30
2022-12-23T21:08:07.319Z,16.30
2022-12-23T21:11:00.292Z,16.40
2022-12-23T21:13:40.540Z,16.40
2022-12-23T21:16:27.320Z,16.40
2022-12-23T21:19:14.274Z,16.30
2022-12-23T21:22:01.262Z,16.30
2022-12-23T21:24:48.284Z,16.30
2022-12-23T21:27:35.357Z,16.30
2022-12-23T21:30:17.283Z,16.40
2022-12-23T21:33:04.330Z,16.30
2022-12-23T21:35:44.299Z,16.30
2022-12-23T21:38:24.774Z,16.30
2022-12-23T21:41:16.291Z,16.30
2022-12-23T21:43:58.316Z,16.20
2022-12-23T21:46:45.300Z,16.10
2022-12-23T21:49:25.773Z,16.00
2022-12-23T21:52:12.274Z,15.90
2022-12-23T21:54:52.738Z,15.90
2022-12-23T21:57:39.321Z,15.80
2022-12-23T22:00:19.897Z,15.80
2022-12-23T22:03:07.293Z,15.70
2022-12-23T22:05:54.396Z,15.70
2022-12-23T22:08:34.304Z,15.60
2022-12-23T22:11:27.272Z,15.60
2022-12-23T22:14:16.265Z,15.60
2022-12-23T22:16:56.848Z,15.60
2022-12-23T22:19:43.277Z,15.60
2022-12-23T22:22:23.757Z,15.60
2022-12-23T22:25:10.285Z,15.50
2022-12-23T22:27:57.288Z,15.50
2022-12-23T22:30:37.338Z,15.50
2022-12-23T22:33:24.268Z,15.40
2022-12-23T22:36:04.363Z,15.40
2022-12-23T22:38:57.282Z,15.40
2022-12-23T22:41:44.287Z,15.40
2022-12-23T22:44:24.774Z,15.40
2022-12-23T22:47:11.296Z,15.40
2022-12-23T22:49:58.304Z,15.50
2022-12-23T22:52:45.310Z,15.50
2022-12-23T22:55:32.359Z,15.40
2022-12-23T22:58:12.277Z,15.40
2022-12-23T23:01:14.277Z,15.40
2022-12-23T23:04:06.289Z,15.40
2022-12-23T23:06:54.284Z,15.40
2022-12-23T23:09:48.293Z,15.30
2022-12-23T23:12:28.746Z,15.30
2022-12-23T23:15:15.289Z,15.30
2022-12-23T23:18:02.283Z,15.30
2022-12-23T23:20:49.306Z,15.30
2022-12-23T23:23:37.340Z,15.30
2022-12-23T23:26:18.323Z,15.30
2022-12-23T23:29:05.275Z,15.30
2022-12-23T23:31:45.430Z,15.30
2022-12-23T23:34:32.277Z,15.30
2022-12-23T23:37:19.324Z,15.20
2022-12-23T23:39:59.297Z,15.20
2022-12-23T23:42:46.274Z,15.20
2022-12-23T23:45:27.453Z,15.20
2022-12-23T23:48:14.277Z,15.20
2022-12-23T23:51:02.303Z,15.20
2022-12-23T23:53:42.809Z,15.20
2022-12-23T23:56:35.877Z,15.10
2022-12-23T23:59:17.781Z,15.10
